CNX weather

Chiang Mai International Airport
Chiang Mai, Chiang Mai Province, Thailand

Public forecast

Using degrees Celsius for public forecast. Weather courtesy of forecast.io.

METAR (pilot weather report)

Retrieved 2019/03/23 10:00 UTC (20 minutes ago):

VTCC 231000Z 14003KT 1500 HZ NSC 35/12 Q1008 NOSIG

TAF (pilot weather forecast)

Retrieved 2019/03/23 06:37 UTC (4 hours ago):

TAF VTCC 230500Z 2306/2412 16005KT 3000 HZ FEW030 BECMG 2400/2402 1500 HZ BECMG 2404/2406 3000 HZ